createdAt,value
2018-05-12T00:02:27.195Z,69.24
2018-05-12T00:04:54.583Z,69.53
2018-05-12T00:07:22.057Z,69.73
2018-05-12T00:09:49.496Z,69.92
2018-05-12T00:14:50.644Z,70.48
2018-05-12T00:17:18.115Z,70.45
2018-05-12T00:19:45.504Z,70.62
2018-05-12T00:22:12.904Z,70.82
2018-05-12T00:24:40.377Z,70.91
2018-05-12T00:27:07.837Z,71.03
2018-05-12T00:29:35.299Z,70.95
2018-05-12T00:32:02.757Z,71.01
2018-05-12T00:34:30.307Z,70.75
2018-05-12T00:37:00.353Z,70.40
2018-05-12T00:39:27.779Z,70.12
2018-05-12T00:41:55.273Z,70.10
2018-05-12T00:44:22.696Z,70.38
2018-05-12T00:46:50.155Z,70.44
2018-05-12T00:49:17.610Z,70.53
2018-05-12T00:51:45.024Z,70.61
2018-05-12T00:54:12.480Z,70.31
2018-05-12T00:56:39.909Z,70.24
2018-05-12T00:59:08.011Z,70.19
2018-05-12T01:01:35.451Z,70.23
2018-05-12T01:04:02.921Z,70.60
2018-05-12T01:06:30.323Z,71.26
2018-05-12T01:08:57.785Z,71.95
2018-05-12T01:11:25.186Z,71.70
2018-05-12T01:13:52.646Z,71.62
2018-05-12T01:16:20.067Z,71.76
2018-05-12T01:18:47.498Z,72.30
2018-05-12T01:21:14.932Z,72.21
2018-05-12T01:23:42.389Z,71.88
2018-05-12T01:26:09.861Z,71.64
2018-05-12T01:28:37.306Z,71.83
2018-05-12T01:31:04.707Z,71.97
2018-05-12T01:33:32.164Z,71.96
2018-05-12T01:35:59.584Z,71.63
2018-05-12T01:38:27.067Z,71.28
2018-05-12T01:40:54.525Z,70.97
2018-05-12T01:43:21.989Z,70.92
2018-05-12T01:45:55.301Z,70.81
2018-05-12T01:48:22.764Z,70.73
2018-05-12T01:50:50.172Z,70.77
2018-05-12T01:53:19.056Z,70.68
2018-05-12T01:55:46.484Z,70.63
2018-05-12T01:58:14.759Z,70.51
2018-05-12T02:00:42.189Z,70.82
2018-05-12T02:03:09.643Z,71.08
2018-05-12T02:05:37.109Z,71.26
2018-05-12T02:08:05.472Z,71.32
2018-05-12T02:10:32.896Z,71.12
2018-05-12T02:13:00.368Z,70.97
2018-05-12T02:15:27.809Z,70.75
2018-05-12T02:17:55.232Z,70.57
2018-05-12T02:20:22.693Z,70.70
2018-05-12T02:22:50.690Z,70.81
2018-05-12T02:25:18.133Z,70.95
2018-05-12T02:27:45.571Z,71.08
2018-05-12T02:30:13.105Z,71.37
2018-05-12T02:32:40.563Z,71.43
2018-05-12T02:35:07.949Z,71.66
2018-05-12T02:37:35.420Z,71.70
2018-05-12T02:40:02.857Z,71.73
2018-05-12T02:42:30.294Z,71.89
2018-05-12T02:44:57.735Z,71.61
2018-05-12T02:47:25.301Z,71.71
2018-05-12T02:49:56.387Z,71.77
2018-05-12T02:52:23.817Z,71.61
2018-05-12T02:54:51.256Z,71.69
2018-05-12T02:57:18.727Z,71.80
2018-05-12T02:59:46.177Z,71.74
2018-05-12T03:02:13.632Z,71.82
2018-05-12T03:04:41.881Z,71.94
2018-05-12T03:07:09.347Z,71.92
2018-05-12T03:09:36.813Z,71.89
2018-05-12T03:12:05.345Z,72.25
2018-05-12T03:14:32.826Z,72.65
2018-05-12T03:17:00.291Z,72.68
2018-05-12T03:19:27.741Z,72.55
2018-05-12T03:21:55.172Z,72.43
2018-05-12T03:24:22.595Z,72.29
2018-05-12T03:26:49.989Z,72.25
2018-05-12T03:29:18.137Z,71.94
2018-05-12T03:31:45.593Z,72.10
2018-05-12T03:34:14.599Z,72.18
2018-05-12T03:36:42.508Z,72.12
2018-05-12T03:39:09.968Z,72.33
2018-05-12T03:41:37.388Z,72.41
2018-05-12T03:44:04.822Z,72.78
2018-05-12T03:46:32.258Z,73.12
2018-05-12T03:48:59.702Z,73.47
2018-05-12T03:51:27.093Z,73.77
2018-05-12T03:53:54.552Z,74.21
2018-05-12T03:56:21.999Z,74.25
2018-05-12T03:58:49.457Z,73.96
2018-05-12T04:01:16.915Z,73.63
2018-05-12T04:03:45.481Z,73.35
2018-05-12T04:06:24.923Z,73.11
2018-05-12T04:09:04.131Z,73.03
2018-05-12T04:11:43.288Z,73.27
2018-05-12T04:14:10.771Z,73.32
2018-05-12T04:16:38.488Z,73.57
2018-05-12T04:19:05.966Z,73.57
2018-05-12T04:21:33.417Z,73.48
2018-05-12T04:24:00.823Z,73.48
2018-05-12T04:26:28.293Z,73.51
2018-05-12T04:28:55.765Z,73.52
2018-05-12T04:31:23.258Z,73.35
2018-05-12T04:33:50.689Z,72.92
2018-05-12T04:36:18.169Z,72.60
2018-05-12T04:38:45.615Z,72.81
2018-05-12T04:41:13.072Z,72.99
2018-05-12T04:43:40.471Z,72.75
2018-05-12T04:46:08.099Z,72.30
2018-05-12T04:48:38.292Z,71.94
2018-05-12T04:51:05.694Z,71.76
2018-05-12T04:53:33.153Z,71.60
2018-05-12T04:56:00.593Z,71.66
2018-05-12T04:58:28.067Z,71.30
2018-05-12T05:00:55.541Z,70.75
2018-05-12T05:03:22.964Z,70.50
2018-05-12T05:05:50.408Z,70.34
2018-05-12T05:08:19.541Z,70.30
2018-05-12T05:10:46.987Z,70.08
2018-05-12T05:13:14.420Z,69.51
2018-05-12T05:15:41.839Z,68.92
2018-05-12T05:18:09.308Z,68.29
2018-05-12T05:20:36.744Z,67.88
2018-05-12T05:23:04.214Z,67.68
2018-05-12T05:25:32.538Z,67.33
2018-05-12T05:27:59.956Z,66.84
2018-05-12T05:30:27.391Z,66.43
2018-05-12T05:32:55.560Z,65.94
2018-05-12T05:35:22.946Z,65.81
2018-05-12T05:37:50.537Z,65.43
2018-05-12T05:40:17.943Z,64.94
2018-05-12T05:42:45.455Z,64.41
2018-05-12T05:45:12.874Z,64.23
2018-05-12T05:47:40.297Z,63.84
2018-05-12T05:50:07.765Z,63.86
2018-05-12T05:52:35.214Z,63.50
2018-05-12T05:55:03.467Z,63.23
2018-05-12T05:57:30.850Z,62.39
2018-05-12T05:59:58.251Z,62.44
2018-05-12T06:02:25.637Z,62.15
2018-05-12T06:04:53.548Z,61.61
2018-05-12T06:07:20.984Z,61.40
2018-05-12T06:09:48.401Z,61.26
2018-05-12T06:12:15.836Z,60.47
2018-05-12T06:14:43.264Z,59.79
2018-05-12T06:17:10.694Z,60.26
2018-05-12T06:19:38.115Z,59.80
2018-05-12T06:22:05.579Z,60.03
2018-05-12T06:24:32.983Z,60.46
2018-05-12T06:27:00.407Z,60.82
2018-05-12T06:29:27.862Z,60.84
2018-05-12T06:31:56.216Z,61.13
2018-05-12T06:34:24.541Z,61.22
2018-05-12T06:36:52.032Z,60.87
2018-05-12T06:39:19.411Z,61.04
2018-05-12T06:41:46.799Z,60.71
2018-05-12T06:44:14.203Z,59.83
2018-05-12T06:46:41.638Z,59.63
2018-05-12T06:49:09.996Z,59.30
2018-05-12T06:51:37.398Z,58.81
2018-05-12T06:54:05.618Z,59.15
2018-05-12T06:56:33.017Z,58.84
2018-05-12T06:59:00.489Z,57.98
2018-05-12T07:01:27.944Z,56.91
2018-05-12T07:03:55.397Z,55.89
2018-05-12T07:06:22.829Z,56.09
2018-05-12T07:08:50.232Z,55.74
2018-05-12T07:11:17.697Z,54.98
2018-05-12T07:13:45.173Z,54.94
2018-05-12T07:16:12.648Z,55.71
2018-05-12T07:18:40.088Z,56.10
2018-05-12T07:21:07.472Z,55.86
2018-05-12T07:23:34.887Z,55.23
2018-05-12T07:26:02.285Z,53.89
2018-05-12T07:28:29.749Z,53.61
2018-05-12T07:30:57.212Z,52.64
2018-05-12T07:33:24.610Z,52.28
2018-05-12T07:35:52.454Z,52.42
2018-05-12T07:38:20.131Z,52.31
2018-05-12T07:40:47.601Z,51.98
2018-05-12T07:43:15.041Z,52.13
2018-05-12T07:45:43.227Z,52.25
2018-05-12T07:48:10.638Z,51.97
2018-05-12T07:50:38.076Z,51.68
2018-05-12T07:53:05.541Z,51.27
2018-05-12T07:55:32.932Z,50.87
2018-05-12T07:58:00.411Z,50.16
2018-05-12T08:00:28.357Z,48.87
2018-05-12T08:02:55.763Z,47.98
2018-05-12T08:05:23.995Z,47.93
2018-05-12T08:07:51.412Z,47.70
2018-05-12T08:10:18.851Z,47.47
2018-05-12T08:12:46.315Z,47.65
2018-05-12T08:15:13.727Z,46.69
2018-05-12T08:17:41.196Z,46.04
2018-05-12T08:20:08.679Z,46.19
2018-05-12T08:22:36.121Z,45.87
2018-05-12T08:25:03.625Z,45.66
2018-05-12T08:27:31.117Z,44.90
2018-05-12T08:29:58.538Z,43.93
2018-05-12T08:32:25.976Z,44.59
2018-05-12T08:34:53.376Z,45.36
2018-05-12T08:37:20.848Z,45.25
2018-05-12T08:39:48.306Z,45.43
2018-05-12T08:42:17.866Z,44.84
2018-05-12T08:44:45.277Z,43.99
2018-05-12T08:47:12.735Z,43.80
2018-05-12T08:49:40.192Z,43.94
2018-05-12T08:52:07.875Z,45.12
2018-05-12T08:54:35.289Z,44.65
2018-05-12T08:57:02.719Z,44.60
2018-05-12T08:59:30.224Z,45.95
2018-05-12T09:01:58.847Z,46.65
2018-05-12T09:04:26.299Z,46.50
2018-05-12T09:06:53.704Z,46.52
2018-05-12T09:09:21.104Z,46.63
2018-05-12T09:11:48.759Z,46.44
2018-05-12T09:14:16.203Z,46.15
2018-05-12T09:16:43.639Z,46.41
2018-05-12T09:19:11.187Z,47.10
2018-05-12T09:21:38.614Z,46.50
2018-05-12T09:24:06.048Z,45.28
2018-05-12T09:26:34.372Z,45.32
2018-05-12T09:29:01.811Z,44.95
2018-05-12T09:31:29.293Z,45.45
2018-05-12T09:33:56.791Z,45.40
2018-05-12T09:36:24.280Z,44.79
2018-05-12T09:41:25.674Z,44.19
2018-05-12T09:43:53.124Z,43.77
2018-05-12T09:46:20.561Z,43.56
2018-05-12T09:48:48.005Z,43.08
2018-05-12T09:51:15.509Z,43.35
2018-05-12T09:53:42.983Z,43.61
2018-05-12T09:56:10.403Z,43.68
2018-05-12T09:58:38.406Z,44.25
2018-05-12T10:01:05.841Z,44.33
2018-05-12T10:03:33.374Z,44.12
2018-05-12T10:06:00.832Z,44.04
2018-05-12T10:08:29.203Z,44.39
2018-05-12T10:10:56.639Z,43.70
2018-05-12T10:13:24.038Z,43.26
2018-05-12T10:15:51.468Z,42.86
2018-05-12T10:18:37.788Z,43.21
2018-05-12T10:21:05.236Z,43.29
2018-05-12T10:23:32.741Z,41.98
2018-05-12T10:26:00.224Z,41.65
2018-05-12T10:28:27.673Z,41.56
2018-05-12T10:30:55.058Z,41.09
2018-05-12T10:33:22.613Z,41.05
2018-05-12T10:35:50.034Z,40.95
2018-05-12T10:38:17.476Z,40.74
2018-05-12T10:40:48.792Z,40.70
2018-05-12T10:43:16.195Z,40.42
2018-05-12T10:45:43.600Z,40.55
2018-05-12T10:48:11.074Z,40.17
2018-05-12T10:50:38.495Z,39.90
2018-05-12T10:53:05.938Z,39.79
2018-05-12T10:55:35.416Z,39.29
2018-05-12T10:58:02.856Z,38.92
2018-05-12T11:00:30.313Z,39.01
2018-05-12T11:03:00.011Z,39.05
2018-05-12T11:05:27.459Z,38.91
2018-05-12T11:07:54.922Z,38.63
2018-05-12T11:10:22.388Z,38.85
2018-05-12T11:12:49.839Z,38.06
2018-05-12T11:15:18.009Z,37.55
2018-05-12T11:17:45.405Z,37.13
2018-05-12T11:20:13.056Z,37.82
2018-05-12T11:22:40.489Z,38.33
2018-05-12T11:25:07.951Z,37.99
2018-05-12T11:27:34.953Z,37.52
2018-05-12T11:30:02.518Z,37.22
2018-05-12T11:32:31.199Z,36.59
2018-05-12T11:34:59.236Z,36.45
2018-05-12T11:37:27.392Z,36.59
2018-05-12T11:39:55.057Z,36.03
2018-05-12T11:42:22.051Z,35.98
2018-05-12T11:44:50.138Z,35.82
2018-05-12T11:47:17.196Z,35.69
2018-05-12T11:49:47.001Z,34.88
2018-05-12T11:52:14.378Z,35.25
2018-05-12T11:54:41.448Z,36.03
2018-05-12T11:57:08.439Z,36.39
2018-05-12T11:59:35.826Z,35.00
2018-05-12T12:02:03.282Z,34.77
2018-05-12T12:04:30.753Z,34.98
2018-05-12T12:06:58.337Z,34.94
2018-05-12T12:09:25.803Z,34.52
2018-05-12T12:11:53.226Z,34.96
2018-05-12T12:14:20.766Z,35.12
2018-05-12T12:16:49.222Z,34.57
2018-05-12T12:19:16.608Z,34.29
2018-05-12T12:21:44.046Z,34.59
2018-05-12T12:24:11.507Z,34.26
2018-05-12T12:26:38.980Z,33.64
2018-05-12T12:29:06.423Z,33.14
2018-05-12T12:31:33.807Z,32.96
2018-05-12T12:34:01.275Z,33.92
2018-05-12T12:36:29.478Z,33.78
2018-05-12T12:38:58.844Z,33.71
2018-05-12T12:41:26.238Z,34.21
2018-05-12T12:43:53.727Z,35.19
2018-05-12T12:46:23.398Z,35.33
2018-05-12T12:48:51.995Z,34.65
2018-05-12T12:51:20.682Z,34.69
2018-05-12T12:53:48.484Z,34.11
2018-05-12T12:56:16.882Z,33.92
2018-05-12T12:58:44.358Z,33.42
2018-05-12T13:01:11.758Z,33.22
2018-05-12T13:03:39.979Z,33.11
2018-05-12T13:06:07.370Z,32.98
2018-05-12T13:08:34.813Z,33.23
2018-05-12T13:11:02.243Z,33.02
2018-05-12T13:13:29.669Z,32.61
2018-05-12T13:15:57.116Z,31.92
2018-05-12T13:18:24.517Z,32.15
2018-05-12T13:20:52.030Z,32.27
2018-05-12T13:23:19.471Z,31.85
2018-05-12T13:25:46.913Z,31.19
2018-05-12T13:28:14.325Z,30.80
2018-05-12T13:30:41.836Z,30.26
2018-05-12T13:33:09.495Z,29.58
2018-05-12T13:35:36.952Z,29.05
2018-05-12T13:38:04.373Z,29.17
2018-05-12T13:40:32.546Z,29.29
2018-05-12T13:43:00.057Z,29.68
2018-05-12T13:45:28.228Z,29.70
2018-05-12T13:47:56.012Z,29.74
2018-05-12T13:50:23.481Z,30.26
2018-05-12T13:52:51.259Z,30.83
2018-05-12T13:55:20.378Z,31.73
2018-05-12T13:57:47.832Z,32.15
2018-05-12T14:00:15.300Z,32.40
2018-05-12T14:02:42.793Z,32.57
2018-05-12T14:05:10.261Z,32.45
2018-05-12T14:07:38.071Z,33.56
2018-05-12T14:10:05.039Z,34.09
2018-05-12T14:12:32.513Z,33.79
2018-05-12T14:15:00.078Z,33.41
2018-05-12T14:17:27.504Z,33.40
2018-05-12T14:19:54.910Z,34.00
2018-05-12T14:22:22.305Z,33.52
2018-05-12T14:24:49.708Z,32.65
2018-05-12T14:27:17.144Z,32.15
2018-05-12T14:29:44.530Z,31.98
2018-05-12T14:32:11.983Z,31.70
2018-05-12T14:34:39.523Z,32.38
2018-05-12T14:37:06.488Z,32.53
2018-05-12T14:39:33.939Z,33.86
2018-05-12T14:42:02.137Z,33.06
2018-05-12T14:44:29.547Z,32.37
2018-05-12T14:46:57.905Z,32.35
2018-05-12T14:49:25.372Z,32.48
2018-05-12T14:51:52.791Z,32.55
2018-05-12T14:54:20.195Z,32.56
2018-05-12T14:56:47.719Z,31.89
2018-05-12T14:59:15.250Z,31.70
2018-05-12T15:01:42.992Z,31.89
2018-05-12T15:04:10.387Z,32.01
2018-05-12T15:06:37.851Z,32.30
2018-05-12T15:09:05.367Z,32.12
2018-05-12T15:11:32.883Z,32.83
2018-05-12T15:14:00.702Z,33.37
2018-05-12T15:16:28.136Z,34.05
2018-05-12T15:18:55.572Z,34.61
2018-05-12T15:21:23.005Z,34.76
2018-05-12T15:23:50.446Z,35.07
2018-05-12T15:26:17.886Z,34.95
2018-05-12T15:28:45.339Z,34.80
2018-05-12T15:31:16.354Z,34.15
2018-05-12T15:33:43.854Z,33.96
2018-05-12T15:36:11.401Z,34.34
2018-05-12T15:38:38.793Z,34.45
2018-05-12T15:41:06.222Z,34.37
2018-05-12T15:43:33.669Z,35.27
2018-05-12T15:46:01.151Z,35.89
2018-05-12T15:48:28.575Z,36.07
2018-05-12T15:50:56.013Z,36.22
2018-05-12T15:53:23.448Z,36.56
2018-05-12T15:55:50.913Z,36.85
2018-05-12T15:58:18.379Z,37.01
2018-05-12T16:00:47.337Z,39.94
2018-05-12T16:03:16.580Z,40.49
2018-05-12T16:05:44.007Z,41.16
2018-05-12T16:08:12.041Z,40.76
2018-05-12T16:10:39.459Z,41.77
2018-05-12T16:13:06.843Z,41.91
2018-05-12T16:15:35.136Z,41.89
2018-05-12T16:18:02.123Z,41.86
2018-05-12T16:20:29.170Z,41.92
2018-05-12T16:22:56.558Z,42.09
2018-05-12T16:25:24.010Z,41.91
2018-05-12T16:27:51.408Z,42.06
2018-05-12T16:30:18.807Z,41.63
2018-05-12T16:32:46.240Z,41.63
2018-05-12T16:35:13.675Z,41.51
2018-05-12T16:37:40.657Z,41.74
2018-05-12T16:40:07.649Z,41.70
2018-05-12T16:42:34.624Z,42.07
2018-05-12T16:45:02.016Z,41.85
2018-05-12T16:47:29.458Z,42.06
2018-05-12T16:49:56.933Z,42.06
2018-05-12T16:52:24.340Z,42.26
2018-05-12T16:54:52.380Z,42.65
2018-05-12T16:57:19.780Z,43.15
2018-05-12T16:59:47.303Z,42.61
2018-05-12T17:02:14.752Z,42.54
2018-05-12T17:04:42.279Z,42.57
2018-05-12T17:07:09.705Z,42.60
2018-05-12T17:09:37.156Z,42.91
2018-05-12T17:12:04.579Z,43.16
2018-05-12T17:14:32.197Z,43.41
2018-05-12T17:16:59.697Z,43.44
2018-05-12T17:19:27.108Z,43.37
2018-05-12T17:21:54.637Z,43.29
2018-05-12T17:24:22.036Z,43.51
2018-05-12T17:26:53.192Z,43.67
2018-05-12T17:29:21.851Z,44.06
2018-05-12T17:31:50.453Z,44.35
2018-05-12T17:34:18.989Z,44.66
2018-05-12T17:36:46.463Z,44.94
2018-05-12T17:39:13.884Z,45.00
2018-05-12T17:41:41.452Z,44.95
2018-05-12T17:44:08.874Z,44.86
2018-05-12T17:46:40.033Z,45.18
2018-05-12T17:49:07.799Z,45.59
2018-05-12T17:51:35.238Z,45.67
2018-05-12T17:54:02.766Z,45.91
2018-05-12T17:56:30.331Z,46.26
2018-05-12T17:58:58.492Z,46.81
2018-05-12T18:01:26.060Z,47.07
2018-05-12T18:03:53.590Z,47.49
2018-05-12T18:06:21.184Z,48.07
2018-05-12T18:08:48.593Z,48.48
2018-05-12T18:11:16.026Z,48.81
2018-05-12T18:13:43.488Z,49.05
2018-05-12T18:16:11.753Z,49.13
2018-05-12T18:18:39.227Z,49.52
2018-05-12T18:21:06.802Z,49.83
2018-05-12T18:23:34.254Z,50.15
2018-05-12T18:26:01.890Z,50.36
2018-05-12T18:28:29.410Z,51.10
2018-05-12T18:30:56.894Z,51.45
2018-05-12T18:33:24.400Z,51.74
2018-05-12T18:35:51.874Z,51.88
2018-05-12T18:38:19.344Z,52.26
2018-05-12T18:40:47.741Z,52.29
2018-05-12T18:43:15.193Z,52.31
2018-05-12T18:45:45.364Z,52.21
2018-05-12T18:48:12.818Z,52.24
2018-05-12T18:50:40.290Z,52.39
2018-05-12T18:53:08.925Z,52.38
2018-05-12T18:55:36.357Z,52.33
2018-05-12T18:58:04.663Z,52.38
2018-05-12T19:00:32.143Z,52.46
2018-05-12T19:03:02.724Z,52.60
2018-05-12T19:05:30.570Z,52.71
2018-05-12T19:07:57.999Z,52.72
2018-05-12T19:10:25.404Z,52.72
2018-05-12T19:12:55.189Z,52.72
2018-05-12T19:15:22.755Z,52.67
2018-05-12T19:17:50.179Z,52.74
2018-05-12T19:20:17.591Z,52.92
2018-05-12T19:22:45.601Z,52.99
2018-05-12T19:25:13.085Z,52.91
2018-05-12T19:27:41.140Z,52.88
2018-05-12T19:30:08.577Z,52.96
2018-05-12T19:32:36.077Z,52.74
2018-05-12T19:35:03.599Z,52.59
2018-05-12T19:37:31.079Z,52.56
2018-05-12T19:39:58.554Z,52.57
2018-05-12T19:42:26.001Z,52.50
2018-05-12T19:44:53.395Z,52.72
2018-05-12T19:47:20.857Z,52.82
2018-05-12T19:49:48.340Z,52.76
2018-05-12T19:52:16.497Z,52.66
2018-05-12T19:54:43.952Z,52.61
2018-05-12T19:57:15.054Z,52.75
2018-05-12T19:59:42.505Z,52.80
2018-05-12T20:02:10.552Z,52.91
2018-05-12T20:04:38.380Z,52.82
2018-05-12T20:07:05.837Z,52.81
2018-05-12T20:09:33.318Z,52.12
2018-05-12T20:12:00.741Z,52.22
2018-05-12T20:14:28.169Z,52.07
2018-05-12T20:16:55.616Z,52.08
2018-05-12T20:19:23.029Z,52.30
2018-05-12T20:21:50.499Z,52.26
2018-05-12T20:24:17.942Z,52.27
2018-05-12T20:26:45.413Z,52.39
2018-05-12T20:29:12.883Z,52.13
2018-05-12T20:31:40.397Z,51.55
2018-05-12T20:34:07.931Z,51.27
2018-05-12T20:36:35.357Z,51.11
2018-05-12T20:39:02.787Z,50.31
2018-05-12T20:41:30.235Z,49.50
2018-05-12T20:43:57.704Z,49.43
2018-05-12T20:46:25.183Z,49.19
2018-05-12T20:48:52.654Z,49.19
2018-05-12T20:51:20.128Z,49.25
2018-05-12T20:53:47.629Z,49.23
2018-05-12T20:56:16.028Z,48.89
2018-05-12T20:58:43.487Z,50.04
2018-05-12T21:01:11.008Z,49.45
2018-05-12T21:03:38.505Z,49.35
2018-05-12T21:06:06.765Z,49.46
2018-05-12T21:08:34.281Z,48.99
2018-05-12T21:11:02.579Z,49.10
2018-05-12T21:13:30.042Z,49.16
2018-05-12T21:15:58.700Z,49.27
2018-05-12T21:18:26.090Z,49.02
2018-05-12T21:20:53.733Z,49.82
2018-05-12T21:23:21.279Z,49.32
2018-05-12T21:25:48.705Z,49.46
2018-05-12T21:28:16.213Z,49.52
2018-05-12T21:30:43.643Z,49.89
2018-05-12T21:33:11.094Z,50.31
2018-05-12T21:35:38.576Z,50.48
2018-05-12T21:38:06.065Z,50.73
2018-05-12T21:40:33.555Z,56.42
2018-05-12T21:43:01.050Z,55.58
2018-05-12T21:45:28.479Z,56.90
2018-05-12T21:47:55.919Z,57.65
2018-05-12T21:50:23.395Z,56.78
2018-05-12T21:52:50.819Z,56.32
2018-05-12T21:55:18.286Z,55.64
2018-05-12T21:57:45.744Z,55.88
2018-05-12T22:00:13.242Z,56.46
2018-05-12T22:02:41.564Z,57.79
2018-05-12T22:05:09.135Z,59.52
2018-05-12T22:07:37.565Z,60.65
2018-05-12T22:10:05.073Z,61.28
2018-05-12T22:12:33.700Z,61.72
2018-05-12T22:15:01.122Z,62.32
2018-05-12T22:17:28.613Z,62.29
2018-05-12T22:19:56.155Z,62.76
2018-05-12T22:22:23.674Z,62.95
2018-05-12T22:24:51.150Z,64.68
2018-05-12T22:27:18.627Z,66.68
2018-05-12T22:29:46.221Z,68.23
2018-05-12T22:32:13.694Z,68.55
2018-05-12T22:34:41.152Z,69.14
2018-05-12T22:37:08.675Z,70.37
2018-05-12T22:39:36.262Z,68.93
2018-05-12T22:42:03.732Z,67.97
2018-05-12T22:44:35.359Z,67.67
2018-05-12T22:47:02.857Z,68.79
2018-05-12T22:49:30.298Z,68.81
2018-05-12T22:51:57.758Z,69.61
2018-05-12T22:54:25.295Z,71.74
2018-05-12T22:56:52.747Z,70.40
2018-05-12T22:59:20.260Z,71.05
2018-05-12T23:01:48.926Z,70.61
2018-05-12T23:04:16.452Z,71.30
2018-05-12T23:06:43.837Z,72.17
2018-05-12T23:09:11.330Z,72.63
2018-05-12T23:11:38.790Z,72.74
2018-05-12T23:14:06.204Z,72.79
2018-05-12T23:16:33.663Z,73.33
2018-05-12T23:19:01.127Z,72.73
2018-05-12T23:21:28.581Z,72.57
2018-05-12T23:23:56.024Z,72.86
2018-05-12T23:26:23.418Z,73.14
2018-05-12T23:28:51.567Z,74.11
2018-05-12T23:31:19.910Z,74.64
2018-05-12T23:33:47.399Z,75.01
2018-05-12T23:36:14.888Z,75.63
2018-05-12T23:38:42.348Z,76.16
2018-05-12T23:41:09.759Z,76.15
2018-05-12T23:43:37.245Z,75.90
2018-05-12T23:46:06.353Z,75.87
2018-05-12T23:48:33.842Z,76.72
2018-05-12T23:51:01.253Z,76.88
2018-05-12T23:53:28.727Z,77.62
2018-05-12T23:55:56.146Z,77.18
2018-05-12T23:58:23.660Z,77.03
